createdAt,value
2019-04-29T00:01:03.126Z,91.50
2019-04-29T00:04:08.279Z,91.60
2019-04-29T00:07:13.753Z,91.60
2019-04-29T00:10:20.401Z,92.10
2019-04-29T00:13:25.473Z,91.70
2019-04-29T00:16:49.618Z,91.90
2019-04-29T00:20:12.673Z,92.00
2019-04-29T00:23:17.845Z,92.10
2019-04-29T00:26:22.922Z,92.50
2019-04-29T00:29:28.007Z,92.30
2019-04-29T00:32:33.011Z,92.40
2019-04-29T00:35:38.311Z,92.40
2019-04-29T00:39:18.098Z,92.40
2019-04-29T00:42:32.136Z,92.40
2019-04-29T00:45:37.135Z,92.60
2019-04-29T00:48:42.186Z,92.60
2019-04-29T00:51:47.358Z,92.70
2019-04-29T00:54:58.326Z,92.70
2019-04-29T00:58:03.377Z,92.90
2019-04-29T01:01:12.843Z,93.20
2019-04-29T01:04:17.901Z,93.70
2019-04-29T01:07:22.998Z,93.90
2019-04-29T01:10:28.056Z,93.60
2019-04-29T01:13:33.152Z,93.60
2019-04-29T01:16:38.149Z,93.70
2019-04-29T01:19:43.145Z,93.70
2019-04-29T01:22:48.072Z,94.10
2019-04-29T01:25:56.799Z,93.90
2019-04-29T01:29:02.186Z,94.20
2019-04-29T01:32:07.862Z,94.00
2019-04-29T01:35:13.219Z,94.00
2019-04-29T01:38:18.298Z,94.10
2019-04-29T01:41:25.787Z,94.50
2019-04-29T01:44:32.666Z,94.40
2019-04-29T01:47:37.594Z,93.90
2019-04-29T01:50:42.565Z,93.80
2019-04-29T01:53:47.573Z,93.80
2019-04-29T01:56:52.490Z,94.10
2019-04-29T01:59:57.506Z,93.70
2019-04-29T02:03:02.638Z,93.70
2019-04-29T02:06:07.725Z,93.80
2019-04-29T02:09:19.209Z,93.90
2019-04-29T02:12:24.249Z,94.00
2019-04-29T02:15:29.243Z,94.10
2019-04-29T02:18:34.245Z,94.10
2019-04-29T02:21:40.951Z,94.50
2019-04-29T02:24:50.913Z,94.40
2019-04-29T02:27:55.917Z,94.60
2019-04-29T02:31:19.990Z,95.00
2019-04-29T02:34:25.004Z,94.70
2019-04-29T02:37:33.864Z,94.60
2019-04-29T02:40:46.053Z,94.40
2019-04-29T02:43:52.648Z,94.30
2019-04-29T02:46:57.639Z,94.40
2019-04-29T02:50:02.658Z,94.50
2019-04-29T02:53:07.765Z,94.60
2019-04-29T02:56:12.788Z,94.60
2019-04-29T02:59:22.989Z,94.60
2019-04-29T03:02:40.476Z,94.70
2019-04-29T03:05:49.036Z,94.60
2019-04-29T03:08:54.124Z,94.60
2019-04-29T03:12:01.816Z,94.90
2019-04-29T03:15:06.584Z,94.50
2019-04-29T03:18:11.754Z,94.50
2019-04-29T03:21:27.564Z,94.50
2019-04-29T03:24:32.581Z,94.70
2019-04-29T03:27:37.510Z,94.20
2019-04-29T03:30:42.507Z,94.10
2019-04-29T03:33:47.575Z,94.10
2019-04-29T03:36:52.658Z,94.60
2019-04-29T03:39:57.652Z,94.50
2019-04-29T03:43:02.721Z,94.60
2019-04-29T03:46:07.788Z,94.50
2019-04-29T03:49:12.865Z,94.60
2019-04-29T03:52:17.817Z,94.50
2019-04-29T03:55:39.063Z,94.50
2019-04-29T03:58:31.403Z,94.60
2019-04-29T04:01:41.573Z,94.70
2019-04-29T04:04:58.148Z,94.60
2019-04-29T04:08:08.775Z,94.70
2019-04-29T04:11:13.722Z,94.80
2019-04-29T04:14:18.642Z,95.10
2019-04-29T04:17:29.848Z,94.70
2019-04-29T04:20:34.872Z,94.60
2019-04-29T04:23:39.939Z,94.60
2019-04-29T04:26:45.010Z,94.70
2019-04-29T04:29:49.934Z,94.70
2019-04-29T04:32:54.954Z,94.70
2019-04-29T04:36:00.129Z,94.60
2019-04-29T04:39:06.213Z,94.50
2019-04-29T04:42:12.246Z,94.70
2019-04-29T04:45:17.375Z,94.70
2019-04-29T04:48:22.319Z,94.70
2019-04-29T04:51:27.250Z,95.00
2019-04-29T04:54:32.181Z,94.50
2019-04-29T04:57:37.249Z,94.40
2019-04-29T05:00:42.522Z,94.50
2019-04-29T05:03:47.513Z,94.50
2019-04-29T05:06:53.805Z,94.40
2019-04-29T05:09:58.735Z,94.50
2019-04-29T05:13:03.725Z,94.60
2019-04-29T05:16:08.721Z,94.60
2019-04-29T05:19:13.639Z,94.60
2019-04-29T05:22:18.906Z,94.90
2019-04-29T05:25:23.965Z,94.40
2019-04-29T05:28:28.924Z,94.30
2019-04-29T05:31:34.032Z,94.30
2019-04-29T05:34:41.815Z,94.20
2019-04-29T05:38:02.289Z,94.30
2019-04-29T05:41:07.539Z,94.20
2019-04-29T05:44:19.101Z,94.30
2019-04-29T05:47:47.802Z,94.40
2019-04-29T05:51:02.163Z,94.20
2019-04-29T05:54:07.978Z,94.20
2019-04-29T05:57:13.056Z,94.30
2019-04-29T06:00:23.390Z,94.10
2019-04-29T06:03:26.202Z,94.20
2019-04-29T06:06:31.169Z,94.30
2019-04-29T06:09:36.189Z,94.20
2019-04-29T06:12:44.259Z,94.00
2019-04-29T06:15:47.893Z,94.10
2019-04-29T06:18:59.392Z,93.90
2019-04-29T06:21:59.590Z,93.60
2019-04-29T06:25:04.729Z,93.60
2019-04-29T06:28:09.707Z,93.80
2019-04-29T06:31:14.710Z,93.80
2019-04-29T06:34:19.689Z,93.60
2019-04-29T06:37:24.617Z,93.70
2019-04-29T06:40:30.577Z,93.80
2019-04-29T06:43:36.320Z,93.60
2019-04-29T06:46:41.411Z,93.60
2019-04-29T06:49:46.545Z,93.20
2019-04-29T06:52:51.606Z,93.00
2019-04-29T06:55:56.644Z,93.20
2019-04-29T06:59:01.659Z,93.20
2019-04-29T07:02:09.373Z,93.10
2019-04-29T07:05:13.511Z,93.10
2019-04-29T07:08:24.221Z,93.00
2019-04-29T07:11:31.850Z,92.90
2019-04-29T07:14:38.458Z,93.00
2019-04-29T07:17:43.027Z,93.00
2019-04-29T07:20:48.151Z,92.40
2019-04-29T07:23:53.159Z,92.30
2019-04-29T07:27:02.720Z,92.20
2019-04-29T07:30:08.024Z,91.80
2019-04-29T07:33:12.924Z,92.00
2019-04-29T07:36:18.647Z,91.70
2019-04-29T07:39:26.697Z,92.00
2019-04-29T07:42:33.327Z,91.80
2019-04-29T07:46:03.904Z,91.80
2019-04-29T07:49:06.169Z,91.60
2019-04-29T07:52:14.560Z,91.00
2019-04-29T07:55:17.886Z,91.10
2019-04-29T07:58:26.901Z,90.90
2019-04-29T08:01:29.511Z,91.20
2019-04-29T08:04:34.517Z,90.70
2019-04-29T08:07:39.591Z,90.30
2019-04-29T08:10:55.631Z,90.30
2019-04-29T08:13:52.509Z,89.80
2019-04-29T08:16:57.526Z,89.60
2019-04-29T08:20:05.272Z,88.90
2019-04-29T08:23:09.393Z,88.80
2019-04-29T08:26:14.542Z,88.90
2019-04-29T08:29:19.549Z,88.60
2019-04-29T08:32:24.489Z,88.70
2019-04-29T08:35:32.677Z,87.90
2019-04-29T08:38:36.203Z,88.30
2019-04-29T08:41:41.240Z,89.30
2019-04-29T08:44:59.743Z,88.10
2019-04-29T08:48:05.977Z,88.30
2019-04-29T08:51:10.949Z,88.50
2019-04-29T08:54:19.669Z,88.60
2019-04-29T08:57:22.696Z,88.50
2019-04-29T09:00:27.782Z,89.40
2019-04-29T09:03:39.995Z,88.80
2019-04-29T09:06:39.426Z,88.30
2019-04-29T09:09:44.525Z,88.30
2019-04-29T09:12:49.559Z,88.20
2019-04-29T09:15:54.576Z,87.50
2019-04-29T09:18:59.593Z,86.90
2019-04-29T09:22:06.654Z,87.40
2019-04-29T09:25:21.396Z,87.40
2019-04-29T09:28:27.989Z,86.30
2019-04-29T09:31:30.728Z,85.30
2019-04-29T09:34:35.909Z,84.70
2019-04-29T09:37:40.909Z,84.50
2019-04-29T09:41:01.627Z,83.90
2019-04-29T09:44:17.046Z,83.30
2019-04-29T09:47:22.129Z,82.90
2019-04-29T09:50:28.589Z,81.00
2019-04-29T09:53:35.521Z,83.00
2019-04-29T09:56:40.542Z,82.10
2019-04-29T09:59:50.534Z,81.00
2019-04-29T10:03:02.977Z,80.40
2019-04-29T10:06:24.017Z,80.60
2019-04-29T10:09:28.961Z,80.60
2019-04-29T10:12:34.116Z,81.10
2019-04-29T10:16:02.135Z,79.40
2019-04-29T10:19:26.658Z,77.90
2019-04-29T10:22:31.614Z,76.50
2019-04-29T10:25:36.693Z,75.50
2019-04-29T10:28:52.382Z,75.00
2019-04-29T10:31:57.462Z,73.00
2019-04-29T10:35:03.766Z,74.20
2019-04-29T10:38:09.250Z,73.60
2019-04-29T10:41:41.721Z,74.40
2019-04-29T10:45:04.558Z,74.00
2019-04-29T10:48:18.234Z,73.00
2019-04-29T10:51:27.428Z,71.10
2019-04-29T10:54:31.691Z,71.80
2019-04-29T10:57:37.166Z,72.60
2019-04-29T11:01:30.503Z,72.90
2019-04-29T11:04:36.346Z,71.60
2019-04-29T11:07:42.792Z,71.80
2019-04-29T11:10:47.940Z,73.00
2019-04-29T11:13:52.950Z,73.90
2019-04-29T11:16:58.093Z,70.60
2019-04-29T11:20:03.258Z,71.80
2019-04-29T11:23:26.232Z,72.80
2019-04-29T11:26:48.313Z,72.70
2019-04-29T11:29:53.394Z,72.70
2019-04-29T11:33:08.806Z,73.10
2019-04-29T11:36:15.021Z,73.90
2019-04-29T11:39:20.115Z,73.50
2019-04-29T11:42:25.341Z,73.70
2019-04-29T11:45:33.721Z,74.10
2019-04-29T11:48:37.382Z,72.50
2019-04-29T11:52:07.831Z,72.50
2019-04-29T11:54:53.841Z,73.70
2019-04-29T11:58:03.737Z,74.20
2019-04-29T12:01:20.562Z,74.70
2019-04-29T12:04:33.533Z,75.10
2019-04-29T12:07:37.242Z,75.60
2019-04-29T12:10:48.450Z,76.00
2019-04-29T12:14:14.270Z,76.80
2019-04-29T12:17:27.586Z,77.00
2019-04-29T12:20:47.006Z,76.80
2019-04-29T12:23:53.234Z,78.90
2019-04-29T12:26:58.528Z,80.90
2019-04-29T12:30:06.138Z,85.20
2019-04-29T12:33:15.905Z,86.70
2019-04-29T12:36:21.493Z,88.40
2019-04-29T12:39:48.794Z,87.80
2019-04-29T12:43:11.319Z,89.50
2019-04-29T12:46:33.623Z,90.30
2019-04-29T12:49:38.534Z,90.20
2019-04-29T12:52:43.518Z,90.50
2019-04-29T12:55:53.404Z,91.30
2019-04-29T12:58:59.594Z,91.00
2019-04-29T13:02:24.509Z,91.30
2019-04-29T13:05:38.964Z,91.60
2019-04-29T13:08:47.003Z,92.10
2019-04-29T13:12:01.679Z,92.00
2019-04-29T13:15:14.003Z,92.10
2019-04-29T13:18:25.937Z,92.10
2019-04-29T13:21:31.030Z,92.30
2019-04-29T13:24:38.639Z,92.60
2019-04-29T13:27:42.790Z,93.40
2019-04-29T13:30:51.531Z,93.70
2019-04-29T13:33:56.257Z,94.10
2019-04-29T13:37:07.294Z,94.00
2019-04-29T13:40:08.888Z,94.30
2019-04-29T13:43:13.901Z,94.80
2019-04-29T13:46:38.051Z,95.70
2019-04-29T13:49:49.130Z,96.40
2019-04-29T13:52:53.374Z,96.90
2019-04-29T13:56:11.218Z,97.50
2019-04-29T13:59:12.294Z,97.70
2019-04-29T14:02:36.981Z,97.60
2019-04-29T14:05:42.181Z,97.80
2019-04-29T14:08:47.125Z,98.40
2019-04-29T14:12:01.885Z,98.30
2019-04-29T14:15:00.306Z,98.50
2019-04-29T14:18:06.800Z,98.30
2019-04-29T14:21:12.141Z,98.30
2019-04-29T14:24:17.158Z,98.60
2019-04-29T14:27:25.222Z,98.80
2019-04-29T14:30:38.396Z,98.80
2019-04-29T14:33:40.861Z,98.60
2019-04-29T14:36:45.870Z,98.90
2019-04-29T14:39:50.883Z,99.20
2019-04-29T14:43:26.281Z,99.40
2019-04-29T14:46:43.893Z,99.70
2019-04-29T14:49:55.025Z,99.90
2019-04-29T14:52:59.369Z,99.90
2019-04-29T14:56:04.469Z,99.90
2019-04-29T14:59:09.455Z,99.90
2019-04-29T15:02:19.146Z,99.90
2019-04-29T15:05:24.388Z,99.90
2019-04-29T15:08:31.986Z,99.90
2019-04-29T15:11:45.440Z,99.90
2019-04-29T15:14:58.923Z,99.90
2019-04-29T15:18:16.150Z,99.90
2019-04-29T15:21:43.694Z,99.90
2019-04-29T15:24:49.116Z,99.90
2019-04-29T15:27:54.065Z,99.90
2019-04-29T15:30:59.053Z,99.90
2019-04-29T15:34:08.945Z,99.90
2019-04-29T15:37:10.957Z,99.90
2019-04-29T15:40:16.267Z,99.90
2019-04-29T15:43:24.508Z,99.90
2019-04-29T15:46:29.889Z,99.90
2019-04-29T15:49:34.663Z,99.90
2019-04-29T15:52:39.741Z,99.90
2019-04-29T15:55:45.910Z,99.90
2019-04-29T15:58:50.886Z,99.90
2019-04-29T16:01:59.219Z,99.90
2019-04-29T16:05:14.441Z,99.90
2019-04-29T16:08:39.532Z,99.90
2019-04-29T16:12:04.321Z,99.90
2019-04-29T16:15:08.293Z,99.90
2019-04-29T16:18:14.820Z,99.90
2019-04-29T16:21:20.001Z,99.90
2019-04-29T16:24:27.008Z,99.90
2019-04-29T16:27:31.661Z,99.90
2019-04-29T16:30:36.912Z,99.90
2019-04-29T16:33:47.429Z,99.90
2019-04-29T16:36:50.040Z,99.90
2019-04-29T16:39:59.593Z,99.90
2019-04-29T16:43:10.233Z,99.90
2019-04-29T16:46:23.522Z,99.90
2019-04-29T16:49:25.205Z,99.90
2019-04-29T16:52:30.374Z,99.90
2019-04-29T16:55:35.719Z,99.90
2019-04-29T16:58:42.086Z,99.90
2019-04-29T17:01:47.217Z,99.90
2019-04-29T17:04:52.321Z,99.90
2019-04-29T17:07:57.442Z,99.90
2019-04-29T17:11:25.109Z,99.90
2019-04-29T17:14:30.111Z,99.90
2019-04-29T17:17:35.261Z,99.90
2019-04-29T17:20:40.952Z,99.90
2019-04-29T17:23:45.968Z,99.90
2019-04-29T17:26:59.067Z,99.90
2019-04-29T17:30:20.181Z,99.90
2019-04-29T17:33:41.374Z,99.90
2019-04-29T17:36:44.626Z,99.90
2019-04-29T17:39:49.669Z,99.90
2019-04-29T17:43:13.097Z,99.90
2019-04-29T17:46:32.506Z,99.90
2019-04-29T17:50:06.637Z,99.90
2019-04-29T17:53:29.988Z,99.90
2019-04-29T17:56:46.620Z,99.90
2019-04-29T18:00:09.266Z,99.90
2019-04-29T18:03:43.025Z,99.90
2019-04-29T18:07:08.367Z,99.90
2019-04-29T18:10:31.082Z,99.90
2019-04-29T18:13:36.298Z,99.90
2019-04-29T18:16:43.656Z,99.90
2019-04-29T18:20:13.807Z,99.90
2019-04-29T18:23:47.152Z,99.90
2019-04-29T18:26:57.109Z,99.90
2019-04-29T18:30:02.181Z,99.90
2019-04-29T18:33:07.184Z,99.90
2019-04-29T18:36:21.872Z,99.90
2019-04-29T18:39:25.007Z,99.90
2019-04-29T18:42:28.839Z,99.90
2019-04-29T18:45:36.795Z,99.90
2019-04-29T18:48:42.142Z,99.90
2019-04-29T18:51:47.255Z,99.90
2019-04-29T18:54:52.220Z,99.90
2019-04-29T18:57:58.486Z,99.90
2019-04-29T19:01:05.661Z,99.90
2019-04-29T19:04:41.877Z,99.90
2019-04-29T19:07:54.940Z,99.90
2019-04-29T19:10:53.957Z,99.90
2019-04-29T19:13:58.992Z,99.90
2019-04-29T19:17:04.876Z,99.90
2019-04-29T19:20:13.109Z,99.90
2019-04-29T19:23:22.285Z,99.90
2019-04-29T19:26:27.514Z,99.90
2019-04-29T19:29:31.117Z,99.90
2019-04-29T19:32:36.654Z,99.90
2019-04-29T19:35:41.890Z,99.90
2019-04-29T19:38:47.373Z,99.90
2019-04-29T19:41:52.560Z,99.90
2019-04-29T19:44:57.569Z,99.90
2019-04-29T19:48:16.046Z,99.90
2019-04-29T19:51:23.094Z,99.90
2019-04-29T19:54:28.657Z,99.90
2019-04-29T19:57:36.200Z,99.90
2019-04-29T20:00:41.289Z,99.90
2019-04-29T20:04:06.600Z,99.90
2019-04-29T20:07:13.186Z,99.90
2019-04-29T20:10:19.842Z,99.90
2019-04-29T20:13:31.703Z,99.90
2019-04-29T20:17:09.859Z,99.90
2019-04-29T20:20:15.510Z,99.90
2019-04-29T20:23:26.345Z,99.90
2019-04-29T20:26:29.607Z,99.90
2019-04-29T20:29:38.465Z,99.90
2019-04-29T20:32:41.081Z,99.90
2019-04-29T20:35:49.006Z,99.90
2019-04-29T20:38:53.021Z,99.90
2019-04-29T20:42:01.045Z,99.90
2019-04-29T20:45:06.282Z,99.90
2019-04-29T20:48:16.193Z,99.90
2019-04-29T20:51:18.467Z,99.90
2019-04-29T20:54:25.857Z,99.90
2019-04-29T20:57:31.218Z,99.90
2019-04-29T21:00:38.912Z,99.90
2019-04-29T21:03:46.139Z,99.90
2019-04-29T21:06:59.679Z,99.90
2019-04-29T21:09:59.914Z,99.90
2019-04-29T21:13:22.165Z,99.90
2019-04-29T21:16:31.089Z,99.90
2019-04-29T21:19:36.028Z,99.90
2019-04-29T21:22:41.082Z,99.90
2019-04-29T21:25:46.280Z,99.90
2019-04-29T21:28:51.437Z,99.90
2019-04-29T21:32:01.447Z,99.90
2019-04-29T21:35:18.529Z,99.90
2019-04-29T21:38:53.861Z,99.90
2019-04-29T21:42:12.724Z,99.90
2019-04-29T21:45:18.817Z,99.90
2019-04-29T21:48:33.044Z,99.90
2019-04-29T21:51:30.925Z,99.90
2019-04-29T21:54:35.936Z,99.90
2019-04-29T21:57:40.949Z,99.90
2019-04-29T22:00:46.312Z,99.90
2019-04-29T22:03:51.338Z,99.90
2019-04-29T22:06:59.778Z,99.90
2019-04-29T22:10:03.231Z,99.90
2019-04-29T22:13:08.640Z,99.90
2019-04-29T22:16:15.817Z,99.90
2019-04-29T22:19:26.149Z,99.90
2019-04-29T22:22:30.639Z,99.90
2019-04-29T22:25:36.675Z,99.90
2019-04-29T22:28:41.852Z,99.90
2019-04-29T22:31:46.847Z,99.90
2019-04-29T22:34:56.100Z,99.90
2019-04-29T22:37:58.389Z,99.90
2019-04-29T22:41:05.121Z,99.90
2019-04-29T22:44:15.152Z,99.90
2019-04-29T22:47:23.880Z,99.90
2019-04-29T22:50:24.193Z,99.90
2019-04-29T22:53:29.290Z,99.90
2019-04-29T22:56:36.098Z,99.90
2019-04-29T22:59:40.981Z,99.90
2019-04-29T23:02:46.084Z,99.90
2019-04-29T23:05:51.069Z,99.90
2019-04-29T23:08:56.244Z,99.90
2019-04-29T23:12:01.379Z,99.90
2019-04-29T23:15:06.609Z,99.90
2019-04-29T23:18:11.772Z,99.90
2019-04-29T23:21:36.829Z,99.90
2019-04-29T23:24:56.472Z,99.90
2019-04-29T23:28:01.385Z,99.90
2019-04-29T23:31:06.462Z,99.90
2019-04-29T23:34:11.462Z,99.90
2019-04-29T23:37:19.482Z,99.90
2019-04-29T23:40:23.234Z,99.90
2019-04-29T23:43:28.649Z,99.90
2019-04-29T23:46:34.180Z,99.90
2019-04-29T23:49:42.700Z,99.90
2019-04-29T23:52:47.947Z,99.90
2019-04-29T23:55:52.996Z,99.90
2019-04-29T23:59:05.623Z,99.90
